sensor_id;sensor_type;location;lat;lon;timestamp;pressure;altitude;pressure_sealevel;temperature;humidity
60715;BME280;46564;53.096;8.246;2022-11-12T00:00:21;102984.84;;;3.09;94.62
60715;BME280;46564;53.096;8.246;2022-11-12T00:05:41;102979.94;;;3.01;94.36
60715;BME280;46564;53.096;8.246;2022-11-12T00:11:02;102981.38;;;2.98;94.50
60715;BME280;46564;53.096;8.246;2022-11-12T00:16:24;102982.56;;;2.91;94.49
60715;BME280;46564;53.096;8.246;2022-11-12T00:21:44;102982.81;;;2.84;94.63
60715;BME280;46564;53.096;8.246;2022-11-12T00:27:04;102985.91;;;2.80;94.74
60715;BME280;46564;53.096;8.246;2022-11-12T00:32:24;102999.38;;;2.76;94.54
60715;BME280;46564;53.096;8.246;2022-11-12T00:37:45;102996.53;;;2.73;94.55
60715;BME280;46564;53.096;8.246;2022-11-12T00:43:05;102998.47;;;2.65;94.49
60715;BME280;46564;53.096;8.246;2022-11-12T00:48:25;102998.72;;;2.58;94.46
60715;BME280;46564;53.096;8.246;2022-11-12T00:53:46;103010.22;;;2.51;94.50
60715;BME280;46564;53.096;8.246;2022-11-12T00:59:08;102996.91;;;2.46;94.69
60715;BME280;46564;53.096;8.246;2022-11-12T01:04:28;103003.50;;;2.43;94.42
60715;BME280;46564;53.096;8.246;2022-11-12T01:09:48;103001.44;;;2.39;94.75
60715;BME280;46564;53.096;8.246;2022-11-12T01:15:08;102995.06;;;2.35;94.67
60715;BME280;46564;53.096;8.246;2022-11-12T01:20:29;102997.53;;;2.34;95.04
60715;BME280;46564;53.096;8.246;2022-11-12T01:25:49;102990.81;;;2.25;94.60
60715;BME280;46564;53.096;8.246;2022-11-12T01:31:19;102989.50;;;2.20;94.75
60715;BME280;46564;53.096;8.246;2022-11-12T01:36:39;102985.34;;;2.12;94.58
60715;BME280;46564;53.096;8.246;2022-11-12T01:42:00;102983.91;;;2.05;94.56
60715;BME280;46564;53.096;8.246;2022-11-12T01:47:33;102989.31;;;2.08;94.84
60715;BME280;46564;53.096;8.246;2022-11-12T01:52:57;102983.63;;;2.02;94.67
60715;BME280;46564;53.096;8.246;2022-11-12T02:04:56;102987.38;;;1.96;94.93
60715;BME280;46564;53.096;8.246;2022-11-12T02:10:18;102986.19;;;1.92;94.65
60715;BME280;46564;53.096;8.246;2022-11-12T02:15:40;102967.28;;;1.83;94.97
60715;BME280;46564;53.096;8.246;2022-11-12T02:21:05;102976.34;;;1.77;95.06
60715;BME280;46564;53.096;8.246;2022-11-12T02:26:29;102981.84;;;1.72;94.66
60715;BME280;46564;53.096;8.246;2022-11-12T02:31:51;102973.63;;;1.76;94.73
60715;BME280;46564;53.096;8.246;2022-11-12T02:37:11;102982.41;;;1.78;94.95
60715;BME280;46564;53.096;8.246;2022-11-12T02:42:31;102990.38;;;1.71;94.85
60715;BME280;46564;53.096;8.246;2022-11-12T02:47:51;102984.66;;;1.65;94.88
60715;BME280;46564;53.096;8.246;2022-11-12T02:53:12;102984.41;;;1.62;94.93
60715;BME280;46564;53.096;8.246;2022-11-12T02:58:32;102978.47;;;1.63;94.84
60715;BME280;46564;53.096;8.246;2022-11-12T03:03:52;102972.91;;;1.58;94.83
60715;BME280;46564;53.096;8.246;2022-11-12T03:09:12;102976.88;;;1.54;94.85
60715;BME280;46564;53.096;8.246;2022-11-12T03:14:32;102980.25;;;1.53;94.94
60715;BME280;46564;53.096;8.246;2022-11-12T03:19:52;102982.16;;;1.46;94.78
60715;BME280;46564;53.096;8.246;2022-11-12T03:25:12;102994.63;;;1.41;94.91
60715;BME280;46564;53.096;8.246;2022-11-12T03:30:37;102998.34;;;1.34;94.79
60715;BME280;46564;53.096;8.246;2022-11-12T03:35:58;103001.66;;;1.33;95.02
60715;BME280;46564;53.096;8.246;2022-11-12T03:41:18;102988.34;;;1.29;94.87
60715;BME280;46564;53.096;8.246;2022-11-12T03:46:38;102999.31;;;1.26;94.80
60715;BME280;46564;53.096;8.246;2022-11-12T03:52:03;102994.78;;;1.23;95.00
60715;BME280;46564;53.096;8.246;2022-11-12T03:57:23;103005.47;;;1.18;94.74
60715;BME280;46564;53.096;8.246;2022-11-12T04:02:43;102991.66;;;1.17;94.85
60715;BME280;46564;53.096;8.246;2022-11-12T04:08:09;102986.97;;;1.13;94.83
60715;BME280;46564;53.096;8.246;2022-11-12T04:13:49;102975.84;;;1.04;94.88
60715;BME280;46564;53.096;8.246;2022-11-12T04:19:11;102991.03;;;1.01;95.01
60715;BME280;46564;53.096;8.246;2022-11-12T04:24:50;102990.91;;;0.99;94.87
60715;BME280;46564;53.096;8.246;2022-11-12T04:30:28;102994.84;;;0.96;94.96
60715;BME280;46564;53.096;8.246;2022-11-12T04:35:48;102998.41;;;0.87;95.00
60715;BME280;46564;53.096;8.246;2022-11-12T04:41:08;102994.50;;;0.82;94.64
60715;BME280;46564;53.096;8.246;2022-11-12T04:46:47;102981.16;;;0.78;95.20
60715;BME280;46564;53.096;8.246;2022-11-12T04:52:08;103000.63;;;0.74;94.82
60715;BME280;46564;53.096;8.246;2022-11-12T04:57:28;102981.81;;;0.75;94.84
60715;BME280;46564;53.096;8.246;2022-11-12T05:02:49;102989.75;;;0.68;95.16
60715;BME280;46564;53.096;8.246;2022-11-12T05:08:09;103014.28;;;0.73;94.89
60715;BME280;46564;53.096;8.246;2022-11-12T05:13:29;102990.03;;;0.71;95.07
60715;BME280;46564;53.096;8.246;2022-11-12T05:18:49;103001.56;;;0.66;95.24
60715;BME280;46564;53.096;8.246;2022-11-12T05:24:09;103007.53;;;0.65;95.15
60715;BME280;46564;53.096;8.246;2022-11-12T05:29:46;103004.81;;;0.63;94.88
60715;BME280;46564;53.096;8.246;2022-11-12T05:35:06;102986.31;;;0.59;95.01
60715;BME280;46564;53.096;8.246;2022-11-12T05:40:26;102988.44;;;0.54;95.26
60715;BME280;46564;53.096;8.246;2022-11-12T05:45:46;102993.19;;;0.49;95.33
60715;BME280;46564;53.096;8.246;2022-11-12T05:51:07;102996.13;;;0.44;95.28
60715;BME280;46564;53.096;8.246;2022-11-12T05:56:35;102996.44;;;0.38;95.22
60715;BME280;46564;53.096;8.246;2022-11-12T06:01:55;103006.91;;;0.40;95.40
60715;BME280;46564;53.096;8.246;2022-11-12T06:07:15;102992.00;;;0.46;95.10
60715;BME280;46564;53.096;8.246;2022-11-12T06:12:35;102994.75;;;0.39;95.02
60715;BME280;46564;53.096;8.246;2022-11-12T06:17:55;103000.97;;;0.41;95.12
60715;BME280;46564;53.096;8.246;2022-11-12T06:23:16;102991.91;;;0.35;95.27
60715;BME280;46564;53.096;8.246;2022-11-12T06:28:36;103012.38;;;0.34;95.47
60715;BME280;46564;53.096;8.246;2022-11-12T06:33:56;102996.75;;;0.32;95.26
60715;BME280;46564;53.096;8.246;2022-11-12T06:39:16;103012.97;;;0.31;95.16
60715;BME280;46564;53.096;8.246;2022-11-12T06:44:36;103006.19;;;0.32;95.27
60715;BME280;46564;53.096;8.246;2022-11-12T06:49:56;103003.78;;;0.25;95.39
60715;BME280;46564;53.096;8.246;2022-11-12T06:55:16;103023.34;;;0.23;95.36
60715;BME280;46564;53.096;8.246;2022-11-12T07:00:37;103007.53;;;0.28;95.40
60715;BME280;46564;53.096;8.246;2022-11-12T07:05:57;103010.00;;;0.18;95.10
60715;BME280;46564;53.096;8.246;2022-11-12T07:11:18;103032.69;;;0.31;95.09
60715;BME280;46564;53.096;8.246;2022-11-12T07:16:39;103041.75;;;0.36;95.41
60715;BME280;46564;53.096;8.246;2022-11-12T07:21:59;103048.00;;;0.94;95.28
60715;BME280;46564;53.096;8.246;2022-11-12T07:27:19;103030.66;;;1.20;95.54
60715;BME280;46564;53.096;8.246;2022-11-12T07:32:39;103037.31;;;2.15;95.72
60715;BME280;46564;53.096;8.246;2022-11-12T07:38:07;103038.44;;;4.05;95.23
60715;BME280;46564;53.096;8.246;2022-11-12T07:43:30;103039.44;;;6.03;94.21
60715;BME280;46564;53.096;8.246;2022-11-12T07:48:51;103044.03;;;5.12;91.20
60715;BME280;46564;53.096;8.246;2022-11-12T07:54:11;103032.34;;;7.14;88.81
60715;BME280;46564;53.096;8.246;2022-11-12T07:59:31;103046.59;;;6.81;85.19
60715;BME280;46564;53.096;8.246;2022-11-12T08:04:52;103034.53;;;4.67;83.62
60715;BME280;46564;53.096;8.246;2022-11-12T08:10:12;103061.59;;;3.29;83.81
60715;BME280;46564;53.096;8.246;2022-11-12T08:15:32;103055.03;;;2.81;84.66
60715;BME280;46564;53.096;8.246;2022-11-12T08:20:58;103056.28;;;2.55;85.57
60715;BME280;46564;53.096;8.246;2022-11-12T08:26:19;103072.59;;;2.64;86.49
60715;BME280;46564;53.096;8.246;2022-11-12T08:31:40;103061.47;;;2.96;87.96
60715;BME280;46564;53.096;8.246;2022-11-12T08:37:00;103064.25;;;3.61;88.70
60715;BME280;46564;53.096;8.246;2022-11-12T08:42:22;103084.22;;;4.27;89.29
60715;BME280;46564;53.096;8.246;2022-11-12T08:47:42;103074.03;;;4.63;89.76
60715;BME280;46564;53.096;8.246;2022-11-12T08:53:07;103072.91;;;4.93;89.69
60715;BME280;46564;53.096;8.246;2022-11-12T08:58:28;103095.91;;;5.34;89.74
60715;BME280;46564;53.096;8.246;2022-11-12T09:03:48;103082.84;;;5.92;89.76
60715;BME280;46564;53.096;8.246;2022-11-12T09:09:09;103073.78;;;6.10;89.32
60715;BME280;46564;53.096;8.246;2022-11-12T09:14:29;103096.09;;;6.44;88.78
60715;BME280;46564;53.096;8.246;2022-11-12T09:19:49;103090.66;;;7.03;88.51
60715;BME280;46564;53.096;8.246;2022-11-12T09:25:10;103092.19;;;7.13;87.70
60715;BME280;46564;53.096;8.246;2022-11-12T09:30:30;103105.81;;;7.74;87.35
60715;BME280;46564;53.096;8.246;2022-11-12T09:35:51;103097.78;;;8.11;86.39
60715;BME280;46564;53.096;8.246;2022-11-12T09:47:18;103091.88;;;8.55;85.00
60715;BME280;46564;53.096;8.246;2022-11-12T09:52:40;103091.88;;;8.55;85.00
60715;BME280;46564;53.096;8.246;2022-11-12T09:58:09;103100.50;;;9.41;84.41
60715;BME280;46564;53.096;8.246;2022-11-12T10:03:39;103098.16;;;9.60;83.54
60715;BME280;46564;53.096;8.246;2022-11-12T10:09:27;103088.78;;;9.64;82.52
60715;BME280;46564;53.096;8.246;2022-11-12T10:15:02;103093.59;;;9.87;81.88
60715;BME280;46564;53.096;8.246;2022-11-12T10:26:38;103075.19;;;10.49;80.79
60715;BME280;46564;53.096;8.246;2022-11-12T10:32:02;103077.97;;;10.52;79.82
60715;BME280;46564;53.096;8.246;2022-11-12T10:37:32;103075.81;;;10.94;79.42
60715;BME280;46564;53.096;8.246;2022-11-12T10:48:30;103079.84;;;11.04;77.77
60715;BME280;46564;53.096;8.246;2022-11-12T10:53:55;103077.28;;;11.05;77.58
60715;BME280;46564;53.096;8.246;2022-11-12T10:59:18;103072.00;;;11.22;77.29
60715;BME280;46564;53.096;8.246;2022-11-12T11:04:39;103063.34;;;11.59;76.98
60715;BME280;46564;53.096;8.246;2022-11-12T11:09:59;103053.53;;;11.91;76.24
60715;BME280;46564;53.096;8.246;2022-11-12T11:15:22;103054.88;;;12.00;75.62
60715;BME280;46564;53.096;8.246;2022-11-12T11:20:46;103058.44;;;12.01;74.90
60715;BME280;46564;53.096;8.246;2022-11-12T11:26:15;103041.44;;;11.76;74.47
60715;BME280;46564;53.096;8.246;2022-11-12T11:31:45;103057.19;;;11.76;74.77
60715;BME280;46564;53.096;8.246;2022-11-12T11:37:26;103050.47;;;11.45;74.86
60715;BME280;46564;53.096;8.246;2022-11-12T11:59:21;103033.13;;;10.96;76.06
60715;BME280;46564;53.096;8.246;2022-11-12T12:04:48;103030.84;;;11.03;76.24
60715;BME280;46564;53.096;8.246;2022-11-12T12:10:33;103021.03;;;11.17;76.30
60715;BME280;46564;53.096;8.246;2022-11-12T12:22:28;103008.22;;;11.23;76.16
60715;BME280;46564;53.096;8.246;2022-11-12T12:28:01;102998.22;;;11.14;76.02
60715;BME280;46564;53.096;8.246;2022-11-12T12:33:42;102998.94;;;11.11;75.91
60715;BME280;46564;53.096;8.246;2022-11-12T12:39:22;103003.53;;;11.16;76.04
60715;BME280;46564;53.096;8.246;2022-11-12T12:44:48;103001.72;;;11.14;76.10
60715;BME280;46564;53.096;8.246;2022-11-12T12:50:27;102994.81;;;11.17;76.10
60715;BME280;46564;53.096;8.246;2022-11-12T12:55:49;102998.78;;;11.08;75.96
60715;BME280;46564;53.096;8.246;2022-11-12T13:06:50;102981.78;;;11.18;75.86
60715;BME280;46564;53.096;8.246;2022-11-12T13:12:15;102980.22;;;11.22;75.50
60715;BME280;46564;53.096;8.246;2022-11-12T13:17:44;102986.50;;;11.43;75.41
60715;BME280;46564;53.096;8.246;2022-11-12T13:23:09;102989.56;;;11.53;74.47
60715;BME280;46564;53.096;8.246;2022-11-12T13:28:29;102987.88;;;11.53;73.86
60715;BME280;46564;53.096;8.246;2022-11-12T13:33:49;102992.13;;;11.51;73.63
60715;BME280;46564;53.096;8.246;2022-11-12T13:39:13;102988.53;;;11.49;73.36
60715;BME280;46564;53.096;8.246;2022-11-12T13:44:34;102976.84;;;11.42;73.55
60715;BME280;46564;53.096;8.246;2022-11-12T13:49:58;102979.22;;;11.38;74.18
60715;BME280;46564;53.096;8.246;2022-11-12T13:55:21;102989.94;;;11.42;74.01
60715;BME280;46564;53.096;8.246;2022-11-12T14:00:50;102988.84;;;11.37;74.01
60715;BME280;46564;53.096;8.246;2022-11-12T14:12:04;102987.16;;;11.21;74.22
60715;BME280;46564;53.096;8.246;2022-11-12T14:17:37;102987.72;;;11.14;74.33
60715;BME280;46564;53.096;8.246;2022-11-12T14:23:17;102968.56;;;10.99;74.59
60715;BME280;46564;53.096;8.246;2022-11-12T14:28:43;102968.53;;;10.81;74.92
60715;BME280;46564;53.096;8.246;2022-11-12T14:34:20;102972.75;;;10.77;74.86
60715;BME280;46564;53.096;8.246;2022-11-12T14:39:41;102967.44;;;10.59;75.27
60715;BME280;46564;53.096;8.246;2022-11-12T14:45:02;102963.19;;;10.44;75.54
60715;BME280;46564;53.096;8.246;2022-11-12T14:55:48;102947.63;;;10.15;76.26
60715;BME280;46564;53.096;8.246;2022-11-12T15:01:28;102950.34;;;10.00;76.69
60715;BME280;46564;53.096;8.246;2022-11-12T15:13:21;102945.38;;;9.57;77.45
60715;BME280;46564;53.096;8.246;2022-11-12T15:18:42;102936.81;;;9.44;78.00
60715;BME280;46564;53.096;8.246;2022-11-12T15:29:48;102935.34;;;9.18;79.10
60715;BME280;46564;53.096;8.246;2022-11-12T15:40:45;102932.69;;;9.01;79.33
60715;BME280;46564;53.096;8.246;2022-11-12T15:46:12;102946.00;;;8.76;79.87
60715;BME280;46564;53.096;8.246;2022-11-12T15:51:34;102949.59;;;8.48;80.11
60715;BME280;46564;53.096;8.246;2022-11-12T15:56:54;102946.38;;;8.24;80.59
60715;BME280;46564;53.096;8.246;2022-11-12T16:02:14;102947.50;;;8.14;81.17
60715;BME280;46564;53.096;8.246;2022-11-12T16:07:35;102939.59;;;8.13;81.75
60715;BME280;46564;53.096;8.246;2022-11-12T16:12:57;102943.56;;;7.93;81.83
60715;BME280;46564;53.096;8.246;2022-11-12T16:18:18;102939.84;;;7.89;82.54
60715;BME280;46564;53.096;8.246;2022-11-12T16:23:38;102930.69;;;7.68;82.85
60715;BME280;46564;53.096;8.246;2022-11-12T16:28:58;102931.72;;;7.43;83.18
60715;BME280;46564;53.096;8.246;2022-11-12T16:34:19;102931.34;;;7.37;83.71
60715;BME280;46564;53.096;8.246;2022-11-12T16:39:39;102923.94;;;7.16;84.09
60715;BME280;46564;53.096;8.246;2022-11-12T16:45:00;102930.53;;;6.98;84.50
60715;BME280;46564;53.096;8.246;2022-11-12T16:50:26;102935.22;;;6.77;84.83
60715;BME280;46564;53.096;8.246;2022-11-12T16:55:47;102938.09;;;6.54;85.24
60715;BME280;46564;53.096;8.246;2022-11-12T17:01:13;102932.19;;;6.32;85.34
60715;BME280;46564;53.096;8.246;2022-11-12T17:06:38;102928.34;;;6.13;85.82
60715;BME280;46564;53.096;8.246;2022-11-12T17:11:59;102925.44;;;5.97;85.94
60715;BME280;46564;53.096;8.246;2022-11-12T17:17:19;102929.97;;;5.88;85.99
60715;BME280;46564;53.096;8.246;2022-11-12T17:22:39;102916.91;;;5.74;86.37
60715;BME280;46564;53.096;8.246;2022-11-12T17:27:59;102908.03;;;5.59;86.62
60715;BME280;46564;53.096;8.246;2022-11-12T17:33:19;102901.97;;;5.46;86.95
60715;BME280;46564;53.096;8.246;2022-11-12T17:38:40;102894.06;;;5.33;87.29
60715;BME280;46564;53.096;8.246;2022-11-12T17:44:06;102890.78;;;5.24;87.50
60715;BME280;46564;53.096;8.246;2022-11-12T17:49:29;102902.09;;;5.24;87.75
60715;BME280;46564;53.096;8.246;2022-11-12T17:54:52;102903.09;;;5.14;88.04
60715;BME280;46564;53.096;8.246;2022-11-12T18:00:24;102893.41;;;5.00;88.33
60715;BME280;46564;53.096;8.246;2022-11-12T18:05:59;102888.88;;;4.86;88.51
60715;BME280;46564;53.096;8.246;2022-11-12T18:11:27;102879.31;;;4.73;88.62
60715;BME280;46564;53.096;8.246;2022-11-12T18:16:49;102893.28;;;4.63;88.78
60715;BME280;46564;53.096;8.246;2022-11-12T18:22:10;102884.69;;;4.52;89.16
60715;BME280;46564;53.096;8.246;2022-11-12T18:27:32;102876.56;;;4.48;89.49
60715;BME280;46564;53.096;8.246;2022-11-12T18:32:52;102877.66;;;4.39;89.50
60715;BME280;46564;53.096;8.246;2022-11-12T18:38:12;102688.69;;;4.42;100.00
60715;BME280;46564;53.096;8.246;2022-11-12T18:43:36;102866.53;;;4.52;90.11
60715;BME280;46564;53.096;8.246;2022-11-12T18:48:56;102863.25;;;4.55;90.56
60715;BME280;46564;53.096;8.246;2022-11-12T18:54:23;102869.00;;;4.51;90.80
60715;BME280;46564;53.096;8.246;2022-11-12T18:59:43;102865.25;;;4.47;91.23
60715;BME280;46564;53.096;8.246;2022-11-12T19:05:04;102855.34;;;4.41;91.50
60715;BME280;46564;53.096;8.246;2022-11-12T19:10:24;102856.88;;;4.28;91.33
60715;BME280;46564;53.096;8.246;2022-11-12T19:15:44;102858.66;;;4.17;91.47
60715;BME280;46564;53.096;8.246;2022-11-12T19:21:11;102865.19;;;4.12;91.63
60715;BME280;46564;53.096;8.246;2022-11-12T19:26:38;102862.03;;;4.04;91.73
60715;BME280;46564;53.096;8.246;2022-11-12T19:32:03;102843.38;;;3.98;91.91
60715;BME280;46564;53.096;8.246;2022-11-12T19:37:23;102850.44;;;3.88;91.86
60715;BME280;46564;53.096;8.246;2022-11-12T19:42:53;102846.50;;;3.82;91.87
60715;BME280;46564;53.096;8.246;2022-11-12T19:48:13;102838.78;;;3.71;91.63
60715;BME280;46564;53.096;8.246;2022-11-12T19:53:35;102832.88;;;3.62;91.92
60715;BME280;46564;53.096;8.246;2022-11-12T19:58:55;102832.75;;;3.61;91.82
60715;BME280;46564;53.096;8.246;2022-11-12T20:04:15;102846.38;;;3.58;91.80
60715;BME280;46564;53.096;8.246;2022-11-12T20:09:42;102828.25;;;3.58;91.99
60715;BME280;46564;53.096;8.246;2022-11-12T20:15:03;102841.59;;;3.52;91.81
60715;BME280;46564;53.096;8.246;2022-11-12T20:20:24;102843.06;;;3.49;92.23
60715;BME280;46564;53.096;8.246;2022-11-12T20:25:44;102848.91;;;3.46;91.75
60715;BME280;46564;53.096;8.246;2022-11-12T20:31:10;102842.34;;;3.40;92.19
60715;BME280;46564;53.096;8.246;2022-11-12T20:36:30;102850.53;;;3.34;92.06
60715;BME280;46564;53.096;8.246;2022-11-12T20:41:51;102847.44;;;3.28;92.58
60715;BME280;46564;53.096;8.246;2022-11-12T20:47:11;102853.28;;;3.25;92.29
60715;BME280;46564;53.096;8.246;2022-11-12T20:52:31;102835.19;;;3.15;92.24
60715;BME280;46564;53.096;8.246;2022-11-12T20:57:51;102833.94;;;3.10;92.45
60715;BME280;46564;53.096;8.246;2022-11-12T21:03:13;102841.34;;;3.05;92.65
60715;BME280;46564;53.096;8.246;2022-11-12T21:08:34;102836.56;;;2.99;92.70
60715;BME280;46564;53.096;8.246;2022-11-12T21:13:54;102828.06;;;2.90;92.62
60715;BME280;46564;53.096;8.246;2022-11-12T21:19:14;102826.63;;;2.83;92.70
60715;BME280;46564;53.096;8.246;2022-11-12T21:24:34;102818.50;;;2.79;92.84
60715;BME280;46564;53.096;8.246;2022-11-12T21:29:55;102815.91;;;2.79;92.97
60715;BME280;46564;53.096;8.246;2022-11-12T21:35:15;102822.41;;;2.74;93.17
60715;BME280;46564;53.096;8.246;2022-11-12T21:40:35;102821.91;;;2.68;92.98
60715;BME280;46564;53.096;8.246;2022-11-12T21:45:55;102819.72;;;2.62;92.76
60715;BME280;46564;53.096;8.246;2022-11-12T21:51:15;102809.78;;;2.56;93.00
60715;BME280;46564;53.096;8.246;2022-11-12T21:56:36;102802.81;;;2.55;93.07
60715;BME280;46564;53.096;8.246;2022-11-12T22:01:58;102812.75;;;2.51;92.83
60715;BME280;46564;53.096;8.246;2022-11-12T22:07:18;102801.41;;;2.48;92.87
60715;BME280;46564;53.096;8.246;2022-11-12T22:12:38;102806.81;;;2.52;93.06
60715;BME280;46564;53.096;8.246;2022-11-12T22:18:04;102793.88;;;2.52;93.07
60715;BME280;46564;53.096;8.246;2022-11-12T22:23:24;102787.31;;;2.55;93.11
60715;BME280;46564;53.096;8.246;2022-11-12T22:28:45;102796.97;;;2.58;93.45
60715;BME280;46564;53.096;8.246;2022-11-12T22:34:07;102785.84;;;2.59;93.45
60715;BME280;46564;53.096;8.246;2022-11-12T22:39:28;102789.34;;;2.59;93.31
60715;BME280;46564;53.096;8.246;2022-11-12T22:44:48;102784.97;;;2.58;93.75
60715;BME280;46564;53.096;8.246;2022-11-12T22:50:08;102772.03;;;2.58;93.64
60715;BME280;46564;53.096;8.246;2022-11-12T22:55:29;102784.56;;;2.54;93.43
60715;BME280;46564;53.096;8.246;2022-11-12T23:00:49;102771.50;;;2.52;93.58
60715;BME280;46564;53.096;8.246;2022-11-12T23:06:09;102775.78;;;2.52;93.64
60715;BME280;46564;53.096;8.246;2022-11-12T23:11:30;102777.59;;;2.53;93.42
60715;BME280;46564;53.096;8.246;2022-11-12T23:16:50;102788.84;;;2.53;93.57
60715;BME280;46564;53.096;8.246;2022-11-12T23:22:10;102792.47;;;2.55;93.46
60715;BME280;46564;53.096;8.246;2022-11-12T23:27:30;102772.03;;;2.58;93.74
60715;BME280;46564;53.096;8.246;2022-11-12T23:32:51;102771.59;;;2.64;93.69
60715;BME280;46564;53.096;8.246;2022-11-12T23:38:11;102771.97;;;2.69;93.54
60715;BME280;46564;53.096;8.246;2022-11-12T23:43:31;102770.06;;;2.66;93.78
60715;BME280;46564;53.096;8.246;2022-11-12T23:48:51;102770.94;;;2.67;93.60
60715;BME280;46564;53.096;8.246;2022-11-12T23:54:11;102779.72;;;2.69;93.63
60715;BME280;46564;53.096;8.246;2022-11-12T23:59:31;102762.03;;;2.73;94.01
